sensor_id;sensor_type;location;lat;lon;timestamp;temperature;humidity
42683;DHT22;28293;50.930;3.464;2022-08-19T00:02:04;19.20;80.00
42683;DHT22;28293;50.930;3.464;2022-08-19T00:04:34;19.10;80.30
42683;DHT22;28293;50.930;3.464;2022-08-19T00:07:02;19.10;80.50
42683;DHT22;28293;50.930;3.464;2022-08-19T00:09:28;19.10;80.30
42683;DHT22;28293;50.930;3.464;2022-08-19T00:11:55;19.00;80.60
42683;DHT22;28293;50.930;3.464;2022-08-19T00:14:22;18.90;80.80
42683;DHT22;28293;50.930;3.464;2022-08-19T00:16:49;18.90;80.90
42683;DHT22;28293;50.930;3.464;2022-08-19T00:19:17;18.90;81.10
42683;DHT22;28293;50.930;3.464;2022-08-19T00:21:43;18.90;81.10
42683;DHT22;28293;50.930;3.464;2022-08-19T00:24:11;18.80;81.10
42683;DHT22;28293;50.930;3.464;2022-08-19T00:26:37;18.80;81.10
42683;DHT22;28293;50.930;3.464;2022-08-19T00:29:04;18.70;81.30
42683;DHT22;28293;50.930;3.464;2022-08-19T00:31:30;18.80;81.50
42683;DHT22;28293;50.930;3.464;2022-08-19T00:33:56;18.80;81.40
42683;DHT22;28293;50.930;3.464;2022-08-19T00:36:22;18.70;81.60
42683;DHT22;28293;50.930;3.464;2022-08-19T00:38:48;18.80;81.50
42683;DHT22;28293;50.930;3.464;2022-08-19T00:41:16;18.70;81.50
42683;DHT22;28293;50.930;3.464;2022-08-19T00:44:07;18.60;81.90
42683;DHT22;28293;50.930;3.464;2022-08-19T00:46:36;18.60;82.00
42683;DHT22;28293;50.930;3.464;2022-08-19T00:49:24;18.60;82.10
42683;DHT22;28293;50.930;3.464;2022-08-19T00:51:55;18.60;82.40
42683;DHT22;28293;50.930;3.464;2022-08-19T00:54:24;18.60;82.50
42683;DHT22;28293;50.930;3.464;2022-08-19T00:56:50;18.60;82.40
42683;DHT22;28293;50.930;3.464;2022-08-19T00:59:18;18.60;82.60
42683;DHT22;28293;50.930;3.464;2022-08-19T01:01:44;18.50;82.90
42683;DHT22;28293;50.930;3.464;2022-08-19T01:04:11;18.50;83.00
42683;DHT22;28293;50.930;3.464;2022-08-19T01:06:38;18.40;83.20
42683;DHT22;28293;50.930;3.464;2022-08-19T01:09:05;18.30;83.30
42683;DHT22;28293;50.930;3.464;2022-08-19T01:11:34;18.30;83.20
42683;DHT22;28293;50.930;3.464;2022-08-19T01:14:00;18.40;83.50
42683;DHT22;28293;50.930;3.464;2022-08-19T01:16:27;18.40;83.50
42683;DHT22;28293;50.930;3.464;2022-08-19T01:18:54;18.30;83.60
42683;DHT22;28293;50.930;3.464;2022-08-19T01:21:37;18.30;83.90
42683;DHT22;28293;50.930;3.464;2022-08-19T01:24:05;18.30;84.10
42683;DHT22;28293;50.930;3.464;2022-08-19T01:26:37;18.20;84.20
42683;DHT22;28293;50.930;3.464;2022-08-19T01:29:03;18.20;84.20
42683;DHT22;28293;50.930;3.464;2022-08-19T01:31:29;18.20;84.40
42683;DHT22;28293;50.930;3.464;2022-08-19T01:33:58;18.10;84.60
42683;DHT22;28293;50.930;3.464;2022-08-19T01:36:36;18.10;84.60
42683;DHT22;28293;50.930;3.464;2022-08-19T01:39:06;18.10;84.50
42683;DHT22;28293;50.930;3.464;2022-08-19T01:41:32;18.10;84.70
42683;DHT22;28293;50.930;3.464;2022-08-19T01:43:59;18.00;85.00
42683;DHT22;28293;50.930;3.464;2022-08-19T01:46:26;18.00;85.10
42683;DHT22;28293;50.930;3.464;2022-08-19T01:48:52;18.00;85.10
42683;DHT22;28293;50.930;3.464;2022-08-19T01:51:17;18.00;85.10
42683;DHT22;28293;50.930;3.464;2022-08-19T01:53:47;17.90;85.20
42683;DHT22;28293;50.930;3.464;2022-08-19T01:56:13;17.90;85.40
42683;DHT22;28293;50.930;3.464;2022-08-19T01:58:43;18.00;85.40
42683;DHT22;28293;50.930;3.464;2022-08-19T02:01:11;17.90;85.40
42683;DHT22;28293;50.930;3.464;2022-08-19T02:03:38;17.90;85.50
42683;DHT22;28293;50.930;3.464;2022-08-19T02:06:04;17.90;85.60
42683;DHT22;28293;50.930;3.464;2022-08-19T02:08:32;17.90;85.60
42683;DHT22;28293;50.930;3.464;2022-08-19T02:10:58;17.80;85.50
42683;DHT22;28293;50.930;3.464;2022-08-19T02:13:24;17.80;85.50
42683;DHT22;28293;50.930;3.464;2022-08-19T02:15:50;17.80;85.70
42683;DHT22;28293;50.930;3.464;2022-08-19T02:18:15;17.80;85.60
42683;DHT22;28293;50.930;3.464;2022-08-19T02:20:43;17.80;85.70
42683;DHT22;28293;50.930;3.464;2022-08-19T02:23:10;17.80;85.70
42683;DHT22;28293;50.930;3.464;2022-08-19T02:25:36;17.70;85.70
42683;DHT22;28293;50.930;3.464;2022-08-19T02:28:02;17.80;85.70
42683;DHT22;28293;50.930;3.464;2022-08-19T02:30:28;17.70;85.50
42683;DHT22;28293;50.930;3.464;2022-08-19T02:32:54;17.70;85.50
42683;DHT22;28293;50.930;3.464;2022-08-19T02:35:20;17.70;85.60
42683;DHT22;28293;50.930;3.464;2022-08-19T02:37:46;17.70;85.60
42683;DHT22;28293;50.930;3.464;2022-08-19T02:40:32;17.70;85.70
42683;DHT22;28293;50.930;3.464;2022-08-19T02:43:08;17.70;85.80
42683;DHT22;28293;50.930;3.464;2022-08-19T02:45:35;17.70;85.80
42683;DHT22;28293;50.930;3.464;2022-08-19T02:48:01;17.70;85.90
42683;DHT22;28293;50.930;3.464;2022-08-19T02:50:27;17.60;86.20
42683;DHT22;28293;50.930;3.464;2022-08-19T02:52:53;17.60;86.00
42683;DHT22;28293;50.930;3.464;2022-08-19T02:55:18;17.70;86.00
42683;DHT22;28293;50.930;3.464;2022-08-19T02:57:44;17.70;85.70
42683;DHT22;28293;50.930;3.464;2022-08-19T03:00:10;17.80;85.80
42683;DHT22;28293;50.930;3.464;2022-08-19T03:02:39;17.80;85.70
42683;DHT22;28293;50.930;3.464;2022-08-19T03:05:07;17.80;85.60
42683;DHT22;28293;50.930;3.464;2022-08-19T03:07:33;17.80;85.60
42683;DHT22;28293;50.930;3.464;2022-08-19T03:09:59;17.80;85.60
42683;DHT22;28293;50.930;3.464;2022-08-19T03:12:24;17.80;85.60
42683;DHT22;28293;50.930;3.464;2022-08-19T03:14:50;17.80;85.50
42683;DHT22;28293;50.930;3.464;2022-08-19T03:17:17;17.80;85.60
42683;DHT22;28293;50.930;3.464;2022-08-19T03:19:42;17.80;85.80
42683;DHT22;28293;50.930;3.464;2022-08-19T03:22:09;17.70;85.80
42683;DHT22;28293;50.930;3.464;2022-08-19T03:24:34;17.70;85.80
42683;DHT22;28293;50.930;3.464;2022-08-19T03:27:00;17.70;85.80
42683;DHT22;28293;50.930;3.464;2022-08-19T03:29:28;17.70;85.70
42683;DHT22;28293;50.930;3.464;2022-08-19T03:31:54;17.70;85.90
42683;DHT22;28293;50.930;3.464;2022-08-19T03:34:28;17.70;85.90
42683;DHT22;28293;50.930;3.464;2022-08-19T03:36:57;17.60;85.80
42683;DHT22;28293;50.930;3.464;2022-08-19T03:39:24;17.70;85.90
42683;DHT22;28293;50.930;3.464;2022-08-19T03:41:52;17.60;86.00
42683;DHT22;28293;50.930;3.464;2022-08-19T03:44:20;17.60;85.90
42683;DHT22;28293;50.930;3.464;2022-08-19T03:46:52;17.60;86.00
42683;DHT22;28293;50.930;3.464;2022-08-19T03:49:21;17.60;86.00
42683;DHT22;28293;50.930;3.464;2022-08-19T03:51:49;17.60;86.10
42683;DHT22;28293;50.930;3.464;2022-08-19T03:54:18;17.50;86.20
42683;DHT22;28293;50.930;3.464;2022-08-19T03:56:45;17.50;86.30
42683;DHT22;28293;50.930;3.464;2022-08-19T03:59:15;17.50;86.40
42683;DHT22;28293;50.930;3.464;2022-08-19T04:01:41;17.50;86.40
42683;DHT22;28293;50.930;3.464;2022-08-19T04:04:07;17.50;86.50
42683;DHT22;28293;50.930;3.464;2022-08-19T04:06:35;17.40;86.60
42683;DHT22;28293;50.930;3.464;2022-08-19T04:09:04;17.40;86.60
42683;DHT22;28293;50.930;3.464;2022-08-19T04:11:34;17.40;86.80
42683;DHT22;28293;50.930;3.464;2022-08-19T04:14:00;17.40;86.70
42683;DHT22;28293;50.930;3.464;2022-08-19T04:16:27;17.40;86.70
42683;DHT22;28293;50.930;3.464;2022-08-19T04:19:00;17.40;86.80
42683;DHT22;28293;50.930;3.464;2022-08-19T04:21:27;17.50;86.90
42683;DHT22;28293;50.930;3.464;2022-08-19T04:23:54;17.60;86.80
42683;DHT22;28293;50.930;3.464;2022-08-19T04:26:33;17.50;86.70
42683;DHT22;28293;50.930;3.464;2022-08-19T04:29:01;17.60;86.70
42683;DHT22;28293;50.930;3.464;2022-08-19T04:31:30;17.60;86.70
42683;DHT22;28293;50.930;3.464;2022-08-19T04:33:58;17.60;86.70
42683;DHT22;28293;50.930;3.464;2022-08-19T04:36:30;17.60;86.70
42683;DHT22;28293;50.930;3.464;2022-08-19T04:38:58;17.60;86.90
42683;DHT22;28293;50.930;3.464;2022-08-19T04:41:25;17.60;86.80
42683;DHT22;28293;50.930;3.464;2022-08-19T04:44:09;17.60;86.90
42683;DHT22;28293;50.930;3.464;2022-08-19T04:46:35;17.60;86.80
42683;DHT22;28293;50.930;3.464;2022-08-19T04:49:03;17.50;87.00
42683;DHT22;28293;50.930;3.464;2022-08-19T04:51:30;17.50;87.20
42683;DHT22;28293;50.930;3.464;2022-08-19T04:53:57;17.60;87.20
42683;DHT22;28293;50.930;3.464;2022-08-19T04:56:23;17.60;87.30
42683;DHT22;28293;50.930;3.464;2022-08-19T04:58:52;17.70;87.30
42683;DHT22;28293;50.930;3.464;2022-08-19T05:01:21;17.70;87.50
42683;DHT22;28293;50.930;3.464;2022-08-19T05:03:47;17.70;87.60
42683;DHT22;28293;50.930;3.464;2022-08-19T05:06:15;17.80;87.70
42683;DHT22;28293;50.930;3.464;2022-08-19T05:08:42;17.90;87.70
42683;DHT22;28293;50.930;3.464;2022-08-19T05:11:14;17.90;87.70
42683;DHT22;28293;50.930;3.464;2022-08-19T05:13:41;18.00;88.00
42683;DHT22;28293;50.930;3.464;2022-08-19T05:16:09;18.10;88.00
42683;DHT22;28293;50.930;3.464;2022-08-19T05:18:36;18.10;88.10
42683;DHT22;28293;50.930;3.464;2022-08-19T05:21:20;18.20;88.10
42683;DHT22;28293;50.930;3.464;2022-08-19T05:24:05;18.30;88.30
42683;DHT22;28293;50.930;3.464;2022-08-19T05:26:37;18.40;88.30
42683;DHT22;28293;50.930;3.464;2022-08-19T05:29:04;18.50;88.30
42683;DHT22;28293;50.930;3.464;2022-08-19T05:31:30;18.60;88.20
42683;DHT22;28293;50.930;3.464;2022-08-19T05:33:56;18.60;88.20
42683;DHT22;28293;50.930;3.464;2022-08-19T05:36:25;18.60;88.00
42683;DHT22;28293;50.930;3.464;2022-08-19T05:38:51;18.80;87.90
42683;DHT22;28293;50.930;3.464;2022-08-19T05:41:19;18.90;87.80
42683;DHT22;28293;50.930;3.464;2022-08-19T05:43:45;19.00;87.60
42683;DHT22;28293;50.930;3.464;2022-08-19T05:46:18;19.10;87.50
42683;DHT22;28293;50.930;3.464;2022-08-19T05:48:44;19.30;87.10
42683;DHT22;28293;50.930;3.464;2022-08-19T05:51:10;19.40;86.50
42683;DHT22;28293;50.930;3.464;2022-08-19T05:53:36;19.50;86.20
42683;DHT22;28293;50.930;3.464;2022-08-19T05:56:11;19.60;86.00
42683;DHT22;28293;50.930;3.464;2022-08-19T05:58:37;19.70;85.70
42683;DHT22;28293;50.930;3.464;2022-08-19T06:01:08;19.70;85.80
42683;DHT22;28293;50.930;3.464;2022-08-19T06:03:35;19.80;85.60
42683;DHT22;28293;50.930;3.464;2022-08-19T06:06:03;19.80;85.60
42683;DHT22;28293;50.930;3.464;2022-08-19T06:08:29;19.90;85.70
42683;DHT22;28293;50.930;3.464;2022-08-19T06:10:55;19.80;85.70
42683;DHT22;28293;50.930;3.464;2022-08-19T06:13:21;19.90;85.70
42683;DHT22;28293;50.930;3.464;2022-08-19T06:15:48;19.80;85.90
42683;DHT22;28293;50.930;3.464;2022-08-19T06:18:14;19.90;85.90
42683;DHT22;28293;50.930;3.464;2022-08-19T06:20:41;19.90;86.10
42683;DHT22;28293;50.930;3.464;2022-08-19T06:23:07;20.00;85.90
42683;DHT22;28293;50.930;3.464;2022-08-19T06:25:34;20.10;85.80
42683;DHT22;28293;50.930;3.464;2022-08-19T06:28:00;20.10;85.40
42683;DHT22;28293;50.930;3.464;2022-08-19T06:30:26;20.10;85.60
42683;DHT22;28293;50.930;3.464;2022-08-19T06:32:52;20.20;85.50
42683;DHT22;28293;50.930;3.464;2022-08-19T06:35:17;20.10;85.30
42683;DHT22;28293;50.930;3.464;2022-08-19T06:37:43;20.10;85.50
42683;DHT22;28293;50.930;3.464;2022-08-19T06:40:10;20.20;85.60
42683;DHT22;28293;50.930;3.464;2022-08-19T06:42:38;20.10;85.50
42683;DHT22;28293;50.930;3.464;2022-08-19T06:45:04;20.20;85.50
42683;DHT22;28293;50.930;3.464;2022-08-19T06:47:31;20.20;85.60
42683;DHT22;28293;50.930;3.464;2022-08-19T06:49:58;20.20;85.50
42683;DHT22;28293;50.930;3.464;2022-08-19T06:52:31;20.30;85.80
42683;DHT22;28293;50.930;3.464;2022-08-19T06:54:58;20.30;85.70
42683;DHT22;28293;50.930;3.464;2022-08-19T06:57:25;20.40;85.40
42683;DHT22;28293;50.930;3.464;2022-08-19T06:59:51;20.50;85.10
42683;DHT22;28293;50.930;3.464;2022-08-19T07:02:18;20.60;85.10
42683;DHT22;28293;50.930;3.464;2022-08-19T07:04:44;20.60;85.00
42683;DHT22;28293;50.930;3.464;2022-08-19T07:07:13;20.70;84.90
42683;DHT22;28293;50.930;3.464;2022-08-19T07:09:43;20.80;84.40
42683;DHT22;28293;50.930;3.464;2022-08-19T07:12:11;20.80;84.10
42683;DHT22;28293;50.930;3.464;2022-08-19T07:14:38;20.80;84.00
42683;DHT22;28293;50.930;3.464;2022-08-19T07:17:06;20.90;84.00
42683;DHT22;28293;50.930;3.464;2022-08-19T07:19:33;21.00;83.50
42683;DHT22;28293;50.930;3.464;2022-08-19T07:22:01;21.10;83.30
42683;DHT22;28293;50.930;3.464;2022-08-19T07:24:28;21.10;83.50
42683;DHT22;28293;50.930;3.464;2022-08-19T07:26:56;21.10;83.40
42683;DHT22;28293;50.930;3.464;2022-08-19T07:29:22;21.10;83.40
42683;DHT22;28293;50.930;3.464;2022-08-19T07:31:50;21.00;83.30
42683;DHT22;28293;50.930;3.464;2022-08-19T07:34:16;21.00;84.10
42683;DHT22;28293;50.930;3.464;2022-08-19T07:36:42;21.00;83.70
42683;DHT22;28293;50.930;3.464;2022-08-19T07:39:17;21.00;83.50
42683;DHT22;28293;50.930;3.464;2022-08-19T07:41:44;21.10;83.30
42683;DHT22;28293;50.930;3.464;2022-08-19T07:44:11;21.10;83.30
42683;DHT22;28293;50.930;3.464;2022-08-19T07:46:42;21.20;83.40
42683;DHT22;28293;50.930;3.464;2022-08-19T07:49:11;21.30;82.80
42683;DHT22;28293;50.930;3.464;2022-08-19T07:52:10;21.30;82.70
42683;DHT22;28293;50.930;3.464;2022-08-19T07:54:37;21.20;82.80
42683;DHT22;28293;50.930;3.464;2022-08-19T07:57:04;21.20;83.00
42683;DHT22;28293;50.930;3.464;2022-08-19T07:59:30;21.30;82.80
42683;DHT22;28293;50.930;3.464;2022-08-19T08:01:57;21.30;82.80
42683;DHT22;28293;50.930;3.464;2022-08-19T08:04:25;21.30;82.80
42683;DHT22;28293;50.930;3.464;2022-08-19T08:07:09;21.30;82.80
42683;DHT22;28293;50.930;3.464;2022-08-19T08:09:53;21.40;82.60
42683;DHT22;28293;50.930;3.464;2022-08-19T08:12:25;21.50;82.80
42683;DHT22;28293;50.930;3.464;2022-08-19T08:14:56;21.40;82.70
42683;DHT22;28293;50.930;3.464;2022-08-19T08:17:24;21.50;82.80
42683;DHT22;28293;50.930;3.464;2022-08-19T08:19:50;21.60;82.90
42683;DHT22;28293;50.930;3.464;2022-08-19T08:22:18;21.50;82.50
42683;DHT22;28293;50.930;3.464;2022-08-19T08:25:15;21.50;82.70
42683;DHT22;28293;50.930;3.464;2022-08-19T08:27:43;21.60;82.50
42683;DHT22;28293;50.930;3.464;2022-08-19T08:30:11;21.70;82.10
42683;DHT22;28293;50.930;3.464;2022-08-19T08:32:39;21.90;81.50
42683;DHT22;28293;50.930;3.464;2022-08-19T08:35:07;22.00;81.00
42683;DHT22;28293;50.930;3.464;2022-08-19T08:37:34;21.90;80.70
42683;DHT22;28293;50.930;3.464;2022-08-19T08:40:04;22.00;80.80
42683;DHT22;28293;50.930;3.464;2022-08-19T08:42:34;21.80;81.10
42683;DHT22;28293;50.930;3.464;2022-08-19T08:45:13;21.70;81.50
42683;DHT22;28293;50.930;3.464;2022-08-19T08:47:44;21.70;81.60
42683;DHT22;28293;50.930;3.464;2022-08-19T08:50:39;21.70;81.70
42683;DHT22;28293;50.930;3.464;2022-08-19T08:53:07;21.80;81.30
42683;DHT22;28293;50.930;3.464;2022-08-19T08:55:34;21.80;81.20
42683;DHT22;28293;50.930;3.464;2022-08-19T08:58:07;22.00;80.50
42683;DHT22;28293;50.930;3.464;2022-08-19T09:00:41;22.10;80.10
42683;DHT22;28293;50.930;3.464;2022-08-19T09:03:20;22.30;79.40
42683;DHT22;28293;50.930;3.464;2022-08-19T09:08:40;22.80;78.10
42683;DHT22;28293;50.930;3.464;2022-08-19T09:11:33;23.10;77.30
42683;DHT22;28293;50.930;3.464;2022-08-19T09:14:12;23.30;75.40
42683;DHT22;28293;50.930;3.464;2022-08-19T09:16:41;23.60;75.40
42683;DHT22;28293;50.930;3.464;2022-08-19T09:19:08;23.80;75.00
42683;DHT22;28293;50.930;3.464;2022-08-19T09:21:34;24.10;72.90
42683;DHT22;28293;50.930;3.464;2022-08-19T09:24:03;24.20;72.30
42683;DHT22;28293;50.930;3.464;2022-08-19T09:26:30;24.40;71.40
42683;DHT22;28293;50.930;3.464;2022-08-19T09:28:57;24.40;71.30
42683;DHT22;28293;50.930;3.464;2022-08-19T09:31:27;24.50;71.00
42683;DHT22;28293;50.930;3.464;2022-08-19T09:33:53;24.30;71.00
42683;DHT22;28293;50.930;3.464;2022-08-19T09:36:23;24.60;70.20
42683;DHT22;28293;50.930;3.464;2022-08-19T09:38:51;24.40;70.40
42683;DHT22;28293;50.930;3.464;2022-08-19T09:41:19;24.40;70.20
42683;DHT22;28293;50.930;3.464;2022-08-19T09:43:48;24.10;70.80
42683;DHT22;28293;50.930;3.464;2022-08-19T09:46:18;24.10;71.60
42683;DHT22;28293;50.930;3.464;2022-08-19T09:48:46;24.10;70.80
42683;DHT22;28293;50.930;3.464;2022-08-19T09:51:22;24.10;72.00
42683;DHT22;28293;50.930;3.464;2022-08-19T09:53:49;24.10;72.20
42683;DHT22;28293;50.930;3.464;2022-08-19T09:56:16;24.00;72.30
42683;DHT22;28293;50.930;3.464;2022-08-19T09:58:42;23.70;72.90
42683;DHT22;28293;50.930;3.464;2022-08-19T10:01:08;23.70;72.70
42683;DHT22;28293;50.930;3.464;2022-08-19T10:03:36;23.60;72.80
42683;DHT22;28293;50.930;3.464;2022-08-19T10:06:04;23.50;72.80
42683;DHT22;28293;50.930;3.464;2022-08-19T10:08:34;23.60;72.70
42683;DHT22;28293;50.930;3.464;2022-08-19T10:11:01;23.50;73.00
42683;DHT22;28293;50.930;3.464;2022-08-19T10:13:29;23.60;72.70
42683;DHT22;28293;50.930;3.464;2022-08-19T10:16:04;23.50;73.10
42683;DHT22;28293;50.930;3.464;2022-08-19T10:18:32;23.60;73.20
42683;DHT22;28293;50.930;3.464;2022-08-19T10:21:12;23.60;73.20
42683;DHT22;28293;50.930;3.464;2022-08-19T10:23:41;23.60;73.20
42683;DHT22;28293;50.930;3.464;2022-08-19T10:26:12;23.40;74.10
42683;DHT22;28293;50.930;3.464;2022-08-19T10:28:38;23.50;73.40
42683;DHT22;28293;50.930;3.464;2022-08-19T10:31:15;23.70;72.40
42683;DHT22;28293;50.930;3.464;2022-08-19T10:33:43;23.80;72.60
42683;DHT22;28293;50.930;3.464;2022-08-19T10:36:15;24.10;71.40
42683;DHT22;28293;50.930;3.464;2022-08-19T10:38:43;24.10;71.00
42683;DHT22;28293;50.930;3.464;2022-08-19T10:41:17;24.10;71.40
42683;DHT22;28293;50.930;3.464;2022-08-19T10:43:43;24.10;70.60
42683;DHT22;28293;50.930;3.464;2022-08-19T10:46:12;23.80;72.30
42683;DHT22;28293;50.930;3.464;2022-08-19T10:48:38;23.90;72.40
42683;DHT22;28293;50.930;3.464;2022-08-19T10:51:05;23.80;72.20
42683;DHT22;28293;50.930;3.464;2022-08-19T10:53:50;23.70;72.70
42683;DHT22;28293;50.930;3.464;2022-08-19T10:56:16;23.90;72.10
42683;DHT22;28293;50.930;3.464;2022-08-19T10:59:00;24.00;72.30
42683;DHT22;28293;50.930;3.464;2022-08-19T11:01:27;24.00;71.30
42683;DHT22;28293;50.930;3.464;2022-08-19T11:03:55;24.10;70.90
42683;DHT22;28293;50.930;3.464;2022-08-19T11:06:23;24.20;70.20
42683;DHT22;28293;50.930;3.464;2022-08-19T11:08:51;24.20;70.40
42683;DHT22;28293;50.930;3.464;2022-08-19T11:11:17;24.10;71.00
42683;DHT22;28293;50.930;3.464;2022-08-19T11:13:43;24.10;70.80
42683;DHT22;28293;50.930;3.464;2022-08-19T11:16:14;24.30;70.30
42683;DHT22;28293;50.930;3.464;2022-08-19T11:18:43;24.30;69.80
42683;DHT22;28293;50.930;3.464;2022-08-19T11:21:16;24.20;70.80
42683;DHT22;28293;50.930;3.464;2022-08-19T11:23:43;24.30;70.50
42683;DHT22;28293;50.930;3.464;2022-08-19T11:26:09;24.10;71.00
42683;DHT22;28293;50.930;3.464;2022-08-19T11:28:36;24.10;71.10
42683;DHT22;28293;50.930;3.464;2022-08-19T11:31:02;24.20;70.50
42683;DHT22;28293;50.930;3.464;2022-08-19T11:33:30;24.30;70.80
42683;DHT22;28293;50.930;3.464;2022-08-19T11:35:58;24.30;70.90
42683;DHT22;28293;50.930;3.464;2022-08-19T11:38:25;24.20;70.80
42683;DHT22;28293;50.930;3.464;2022-08-19T11:41:02;24.10;71.60
42683;DHT22;28293;50.930;3.464;2022-08-19T11:43:28;24.00;71.60
42683;DHT22;28293;50.930;3.464;2022-08-19T11:45:55;23.80;71.90
42683;DHT22;28293;50.930;3.464;2022-08-19T11:48:21;23.80;73.10
42683;DHT22;28293;50.930;3.464;2022-08-19T11:50:52;23.70;73.80
42683;DHT22;28293;50.930;3.464;2022-08-19T11:53:20;23.50;74.80
42683;DHT22;28293;50.930;3.464;2022-08-19T11:55:47;23.40;76.50
42683;DHT22;28293;50.930;3.464;2022-08-19T11:58:14;23.50;77.60
42683;DHT22;28293;50.930;3.464;2022-08-19T12:00:41;23.50;78.20
42683;DHT22;28293;50.930;3.464;2022-08-19T12:03:06;23.50;77.00
42683;DHT22;28293;50.930;3.464;2022-08-19T12:05:32;23.60;76.10
42683;DHT22;28293;50.930;3.464;2022-08-19T12:07:58;23.60;75.80
42683;DHT22;28293;50.930;3.464;2022-08-19T12:10:24;23.90;75.20
42683;DHT22;28293;50.930;3.464;2022-08-19T12:12:50;24.10;75.20
42683;DHT22;28293;50.930;3.464;2022-08-19T12:15:16;24.30;73.80
42683;DHT22;28293;50.930;3.464;2022-08-19T12:17:42;24.60;71.80
42683;DHT22;28293;50.930;3.464;2022-08-19T12:20:09;25.00;71.10
42683;DHT22;28293;50.930;3.464;2022-08-19T12:22:36;25.30;68.60
42683;DHT22;28293;50.930;3.464;2022-08-19T12:25:04;25.60;67.70
42683;DHT22;28293;50.930;3.464;2022-08-19T12:27:30;25.80;67.30
42683;DHT22;28293;50.930;3.464;2022-08-19T12:29:56;25.80;66.80
42683;DHT22;28293;50.930;3.464;2022-08-19T12:32:22;25.70;66.40
42683;DHT22;28293;50.930;3.464;2022-08-19T12:34:49;25.80;66.40
42683;DHT22;28293;50.930;3.464;2022-08-19T12:37:14;25.60;65.10
42683;DHT22;28293;50.930;3.464;2022-08-19T12:39:41;25.40;66.60
42683;DHT22;28293;50.930;3.464;2022-08-19T12:42:09;25.00;67.40
42683;DHT22;28293;50.930;3.464;2022-08-19T12:44:36;24.50;69.90
42683;DHT22;28293;50.930;3.464;2022-08-19T12:47:02;24.10;73.00
42683;DHT22;28293;50.930;3.464;2022-08-19T12:49:30;23.70;75.50
42683;DHT22;28293;50.930;3.464;2022-08-19T12:51:59;23.70;76.50
42683;DHT22;28293;50.930;3.464;2022-08-19T12:54:26;23.50;77.80
42683;DHT22;28293;50.930;3.464;2022-08-19T12:56:52;23.30;78.40
42683;DHT22;28293;50.930;3.464;2022-08-19T12:59:17;23.50;78.20
42683;DHT22;28293;50.930;3.464;2022-08-19T13:01:45;23.50;78.70
42683;DHT22;28293;50.930;3.464;2022-08-19T13:04:10;23.70;78.20
42683;DHT22;28293;50.930;3.464;2022-08-19T13:06:36;24.00;77.60
42683;DHT22;28293;50.930;3.464;2022-08-19T13:09:03;24.50;75.20
42683;DHT22;28293;50.930;3.464;2022-08-19T13:11:30;24.90;72.50
42683;DHT22;28293;50.930;3.464;2022-08-19T13:14:00;25.10;73.10
42683;DHT22;28293;50.930;3.464;2022-08-19T13:16:26;25.40;71.20
42683;DHT22;28293;50.930;3.464;2022-08-19T13:18:53;26.00;70.40
42683;DHT22;28293;50.930;3.464;2022-08-19T13:21:21;25.90;69.40
42683;DHT22;28293;50.930;3.464;2022-08-19T13:23:48;25.90;69.10
42683;DHT22;28293;50.930;3.464;2022-08-19T13:26:15;25.70;70.10
42683;DHT22;28293;50.930;3.464;2022-08-19T13:28:42;25.50;70.10
42683;DHT22;28293;50.930;3.464;2022-08-19T13:31:30;25.40;71.10
42683;DHT22;28293;50.930;3.464;2022-08-19T13:34:15;25.20;70.40
42683;DHT22;28293;50.930;3.464;2022-08-19T13:36:41;25.00;70.50
42683;DHT22;28293;50.930;3.464;2022-08-19T13:39:07;24.60;71.00
42683;DHT22;28293;50.930;3.464;2022-08-19T13:41:34;24.60;71.80
42683;DHT22;28293;50.930;3.464;2022-08-19T13:44:00;24.80;72.10
42683;DHT22;28293;50.930;3.464;2022-08-19T13:46:27;25.50;70.60
42683;DHT22;28293;50.930;3.464;2022-08-19T13:48:54;26.10;67.10
42683;DHT22;28293;50.930;3.464;2022-08-19T13:51:20;26.50;66.20
42683;DHT22;28293;50.930;3.464;2022-08-19T13:53:46;26.60;65.60
42683;DHT22;28293;50.930;3.464;2022-08-19T13:56:15;26.80;61.70
42683;DHT22;28293;50.930;3.464;2022-08-19T13:58:41;26.80;61.30
42683;DHT22;28293;50.930;3.464;2022-08-19T14:01:09;26.50;63.10
42683;DHT22;28293;50.930;3.464;2022-08-19T14:03:35;26.80;67.40
42683;DHT22;28293;50.930;3.464;2022-08-19T14:06:02;26.50;67.00
42683;DHT22;28293;50.930;3.464;2022-08-19T14:08:28;26.20;67.70
42683;DHT22;28293;50.930;3.464;2022-08-19T14:10:55;26.00;68.70
42683;DHT22;28293;50.930;3.464;2022-08-19T14:13:22;26.00;69.40
42683;DHT22;28293;50.930;3.464;2022-08-19T14:15:48;25.80;68.80
42683;DHT22;28293;50.930;3.464;2022-08-19T14:18:15;25.90;69.10
42683;DHT22;28293;50.930;3.464;2022-08-19T14:20:42;26.20;69.00
42683;DHT22;28293;50.930;3.464;2022-08-19T14:23:08;26.40;67.00
42683;DHT22;28293;50.930;3.464;2022-08-19T14:25:34;26.40;67.40
42683;DHT22;28293;50.930;3.464;2022-08-19T14:28:00;26.40;66.80
42683;DHT22;28293;50.930;3.464;2022-08-19T14:30:36;26.60;66.00
42683;DHT22;28293;50.930;3.464;2022-08-19T14:33:04;26.70;65.80
42683;DHT22;28293;50.930;3.464;2022-08-19T14:35:31;27.00;65.00
42683;DHT22;28293;50.930;3.464;2022-08-19T14:38:00;27.50;64.30
42683;DHT22;28293;50.930;3.464;2022-08-19T14:40:28;27.50;60.70
42683;DHT22;28293;50.930;3.464;2022-08-19T14:42:56;27.10;60.20
42683;DHT22;28293;50.930;3.464;2022-08-19T14:45:29;26.70;59.80
42683;DHT22;28293;50.930;3.464;2022-08-19T14:47:55;26.50;61.10
42683;DHT22;28293;50.930;3.464;2022-08-19T14:50:20;26.50;60.30
42683;DHT22;28293;50.930;3.464;2022-08-19T14:52:47;26.10;59.90
42683;DHT22;28293;50.930;3.464;2022-08-19T14:55:13;26.20;60.70
42683;DHT22;28293;50.930;3.464;2022-08-19T14:57:41;26.20;63.30
42683;DHT22;28293;50.930;3.464;2022-08-19T15:00:07;26.30;64.20
42683;DHT22;28293;50.930;3.464;2022-08-19T15:02:37;26.40;61.50
42683;DHT22;28293;50.930;3.464;2022-08-19T15:05:02;26.30;58.00
42683;DHT22;28293;50.930;3.464;2022-08-19T15:07:28;26.10;59.60
42683;DHT22;28293;50.930;3.464;2022-08-19T15:09:54;26.00;59.70
42683;DHT22;28293;50.930;3.464;2022-08-19T15:12:20;25.80;59.90
42683;DHT22;28293;50.930;3.464;2022-08-19T15:14:47;25.80;60.00
42683;DHT22;28293;50.930;3.464;2022-08-19T15:17:16;25.80;60.40
42683;DHT22;28293;50.930;3.464;2022-08-19T15:19:42;25.70;60.20
42683;DHT22;28293;50.930;3.464;2022-08-19T15:22:07;25.60;61.00
42683;DHT22;28293;50.930;3.464;2022-08-19T15:24:33;25.50;61.30
42683;DHT22;28293;50.930;3.464;2022-08-19T15:27:01;25.60;61.10
42683;DHT22;28293;50.930;3.464;2022-08-19T15:29:27;25.50;60.80
42683;DHT22;28293;50.930;3.464;2022-08-19T15:31:53;25.40;61.00
42683;DHT22;28293;50.930;3.464;2022-08-19T15:34:23;25.60;61.10
42683;DHT22;28293;50.930;3.464;2022-08-19T15:36:49;25.50;61.30
42683;DHT22;28293;50.930;3.464;2022-08-19T15:39:15;25.70;60.90
42683;DHT22;28293;50.930;3.464;2022-08-19T15:41:41;25.90;60.60